Abdullah Al-Khaibari

Scout - Al-Ra'ed
3 Dec 2028
Sunday
Process

Personality

Adaptability (11) Ambition (6) Controversy (16) Loyalty (15) Pressure (7) Professionalism (9) Sportsmanship (16) Temperament (18)

Profile

Coaching Style Democratic
License Continental C
Determination 5
Man Management 8
Motivating 4
Discipline 9
Job Satisfaction
100%
Fatigue
0%
Role Scout
Wage 28.2K p/w
Contract 14.03.2029

Performance

Behaviour Good
Training Effectiveness
33%
Player Development
45%
Injury Prevention
55%
Tactical Implementation
55%

Recent Events

Attended a recruitment meeting now
Attended a recruitment meeting 7d ago
Recommended a transfer target 7d ago
Recommended a transfer target 7d ago
Attended a recruitment meeting 14d ago
Recommended a transfer target 14d ago
Recommended a transfer target 14d ago
Recommended a transfer target 21d ago

Currently Monitoring

79
Player Club Status Ability Confidence Watched Last Observed Latest Vote
Richard Iriarte Al-Ahli Active 94 / 106 69% 1 14.08.2028 Approve
Khaled Al-Sumairi Damac Active 109 / 100 69% 1 12.06.2028 Approve
Timothy Castagne Stoke City Active 139 / 140 40% 6 30.05.2028 -
Ar'jany Martha Rotherham United Active 109 / 118 40% 5 30.05.2028 -
Daniel Kyerewaa Reading Active 125 / 125 40% 4 28.05.2028 -
Brandon Thomas-Asante Blackpool Active 129 / 129 40% 5 27.05.2028 -
Harry Anderson Bristol Rovers Active 105 / 100 40% 2 27.05.2028 -
Oladapo Afolayan Blackburn Rovers Active 127 / 126 40% 3 26.05.2028 -
Ryan Kavuma-McQueen Accrington Stanley Active 117 / 127 40% 2 26.05.2028 -
Malik Mothersille Stockport County Active 117 / 124 40% 4 25.05.2028 -
Sonny Carey Charlton Athletic Active 123 / 126 40% 2 24.05.2028 -
Ryan McAidoo Oldham Athletic Active 125 / 132 40% 1 24.05.2028 -
Malcolm Ebiowei Gillingham Active 104 / 104 40% 4 21.05.2028 -
Mohamadou Kanté Crawley Town Active 122 / 119 40% 1 21.05.2028 -
Igor Tyjon Barrow AFC Active 117 / 128 40% 1 21.05.2028 -
Mohau Nkota Al-Ettifaq Active 136 / 131 40% 11 18.05.2028 -
Caylan Vickers Burton Albion Active 117 / 113 40% 3 18.05.2028 -
Declan Frith Peterborough United Active 115 / 111 40% 1 17.05.2028 -
Aaron Collins Milton Keynes Dons Active 122 / 116 40% 4 14.05.2028 -
Stephen Humphrys Bradford City Active 109 / 118 40% 3 14.05.2028 -
Zeidane Inoussa Swansea City Active 129 / 127 40% 1 12.05.2028 -
Reuell Walters Luton Town Active 126 / 129 40% 1 12.05.2028 -
Demarai Gray Birmingham Active 134 / 136 40% 5 11.05.2028 -
Kyreece Lisbie Colchester United Active 120 / 114 40% 1 11.05.2028 -
Paddy Lane Reading Active 126 / 118 40% 4 09.05.2028 -
Luca Williams-Barnett Walsall Active 128 / 132 40% 1 09.05.2028 -
Mark Sykes Millwall Active 131 / 126 40% 3 08.05.2028 -
Odel Offiah Shrewsbury Town Active 125 / 129 40% 2 07.05.2028 -
Ante Crnac Bristol Rovers Active 120 / 132 40% 1 06.05.2028 -
George Earthy Reading Active 122 / 126 40% 3 27.04.2028 -
Camillo Tavernelli Arezzo Active 114 / 122 40% 1 27.04.2028 -
Thierry Gale Swindon Town Active 123 / 123 40% 1 19.04.2028 -
Matěj Jurásek Doncaster Rovers Active 121 / 124 40% 1 17.04.2028 -
Seb Ferdinand Rotherham United Active 117 / 118 40% 1 16.04.2028 -
Ibrahim Ashour Masr El Makasa Active 93 / 110 40% 1 16.04.2028 -
Abdoul Ouattara Port Vale Active 137 / 137 40% 4 06.04.2028 -
Wadhah Zaidi Hajer Active 109 / 102 40% 1 05.04.2028 -
Alessandro Arena Arezzo Active 123 / 123 40% 1 27.03.2028 -
Pablo García Gijón Active 105 / 107 40% 1 31.05.2027 -
Kennedy Boateng Al-Fateh Active 133 / 121 40% 1 31.12.2026 -
Zaydou Youssouf Al-Fateh Active 129 / 129 40% 2 28.12.2026 -
Ahmed Al-Nakhli Al-Hazem Active 110 / 102 40% 6 28.12.2026 -
Ali Majrashi Al-Ahli Active 135 / 129 40% 3 27.12.2026 -
Aboubacar Doumbia Al-Orobah Active 95 / 95 40% 2 27.12.2026 -
Vyacheslav Grulev Nizhniy Novgorod Active 113 / 99 40% 1 27.12.2026 -
Reda Khadra Qarabag Active 134 / 138 40% 3 26.12.2026 -
Aiman Yahya Al-Nassr Active 121 / 111 40% 4 26.12.2026 -
Hammam Al-Hammami Al-Shabab Active 105 / 114 40% 1 24.12.2026 -
Dion Lopy Al-Ittihad Active 123 / 139 40% 5 18.12.2026 -
Yacine Adli Al-Shabab Active 139 / 146 40% 6 18.12.2026 -
Denzel Jubitana Neftchi Active 128 / 103 40% 1 17.12.2026 -
Bonheur Mugisha Al-Hazem Active 110 / 116 40% 2 13.12.2026 -
Ítalo Ural Active 96 / 105 40% 1 13.12.2026 -
Mohammed Abu Al-Shamat Al-Qadisiyah Active 116 / 118 40% 4 10.12.2026 -
Musab Al-Juwayr Al-Qadisiyah Active 127 / 133 40% 1 09.12.2026 -
Ziyad Al-Johani Al-Ahli Active 127 / 116 40% 2 08.12.2026 -
Thomas Carrique Andorra Active 125 / 116 40% 2 07.12.2026 -
Khalid Al-Ghannam Al-Ettifaq Active 116 / 126 40% 5 19.11.2026 -
Turki Al-Ammar Al-Qadisiyah Active 116 / 125 40% 2 18.11.2026 -
Manu Morlanes Mallorca Active 130 / 141 40% 1 17.11.2026 -
Saleh Abu Al-Shamat Al-Ahli Active 112 / 114 40% 1 17.11.2026 -
Luca Connell Barnsley Active 115 / 115 40% 1 17.11.2026 -
Mihai Lixandru Al-Fateh Active 120 / 122 40% 1 14.11.2026 -
Lechi Sadulaev Akhmat Grozny Active 129 / 123 40% 1 09.11.2026 -
Matthias Seidl Rapid Wien Active 124 / 126 40% 1 05.11.2026 -
Jáder Valencia Deportes Tolima Active 110 / 105 40% 1 23.10.2026 -
Mariano Bracamonte Deportivo Riestra Active 119 / 123 40% 1 21.10.2026 -
Kein Sato FC Tokyo Active 143 / 145 40% 1 13.10.2026 -
Merih Demiral Al-Ahli Active 135 / 131 40% 1 09.10.2026 -
Loreintz Rosier Al-Hazem Active 122 / 125 40% 1 08.10.2026 -
Yordan Osorio Najran Active 118 / 108 40% 1 08.10.2026 -
Jack Hendry Al-Ettifaq Active 117 / 132 40% 1 06.10.2026 -
Jaime Seoane Al-Faisaly Active 129 / 126 40% 1 05.10.2026 -
Tyrhys Dolan Espanyol Active 131 / 142 40% 1 19.09.2026 -
Bassam Al-Hurayji Al-Taawoun Active 104 / 98 40% 1 15.09.2026 -
Iliya Gruev Leeds United Active 124 / 125 40% 1 10.09.2026 -
Yves Bissouma Tottenham Active 137 / 142 40% 1 07.09.2026 -
Mohamed Benlebna ES Setif Active 81 / 87 40% 1 12.08.2026 -
Domen Oblak NK Maribor Active 62 / 60 40% 1 12.08.2026 -